Time;durP1;ratioP1;P1;durP2;ratioP2;P2;SDS_P1;SDS_P2;PMS_P1;PMS_P2;Temp;Humidity;BMP_temperature;BMP_pressure;BME280_temperature;BME280_humidity;BME280_pressure;Samples;Min_cycle;Max_cycle;Signal;HPM_P1;HPM_P2
2023/11/03 00:00:10;;;;;;;;;;;;;;;;;;4984462;28;92968;-68
2023/11/03 00:02:37;;;;;;;;;;;;;;;;;;4984793;28;92910;-67
2023/11/03 00:05:04;;;;;;;;;;;;;;;;;;4984009;28;93072;-76
2023/11/03 00:07:30;;;;;;;;;;;;;;;;;;4984268;28;92759;-75
2023/11/03 00:09:56;;;;;;;;;;;;;;;;;;4984997;28;92048;-71
2023/11/03 00:12:21;;;;;;;;;;;;;;;;;;4983925;28;92783;-68
2023/11/03 00:14:46;;;;;;;;;;;;;;;;;;4986150;28;92584;-74
2023/11/03 00:17:13;;;;;;;;;;;;;;;;;;4982685;28;93626;-68
2023/11/03 00:19:38;;;;;;;;;;;;;;;;;;4983506;28;92743;-67
2023/11/03 00:22:04;;;;;;;;;;;;;;;;;;4983749;28;93599;-67
2023/11/03 00:24:30;;;;;;;;;;;;;;;;;;4983855;28;92866;-67
2023/11/03 00:26:55;;;;;;;;;;;;;;;;;;4984150;28;93799;-73
2023/11/03 00:29:20;;;;;;;;;;;;;;;;;;4984191;28;93342;-74
2023/11/03 00:31:46;;;;;;;;;;;;;;;;;;4983217;28;93011;-75
2023/11/03 00:34:13;;;;;;;;;;;;;;;;;;4987739;28;92039;-73
2023/11/03 00:36:39;;;;;;;;;;;;;;;;;;4983769;28;92810;-69
2023/11/03 00:39:04;;;;;;;;;;;;;;;;;;4984505;28;92237;-75
2023/11/03 00:41:29;;;;;;;;;;;;;;;;;;4983626;28;93098;-72
2023/11/03 00:43:55;;;;;;;;;;;;;;;;;;4983685;28;93494;-70
2023/11/03 00:46:20;;;;;;;;;;;;;;;;;;4983995;28;93641;-69
2023/11/03 00:48:46;;;;;;;;;;;;;;;;;;4983563;28;93991;-72
2023/11/03 00:51:11;;;;;;;;;;;;;;;;;;4983310;28;93914;-69
2023/11/03 00:53:36;;;;;;;;;;;;;;;;;;4983561;28;92201;-68
2023/11/03 00:56:04;;;;;;;;;;;;;;;;;;4986560;28;92588;-79
2023/11/03 00:58:29;;;;;;;;;;;;;;;;;;4984679;28;92152;-79
2023/11/03 01:00:55;;;;;;;;;;;;;;;;;;4984285;28;92181;-72
2023/11/03 01:03:20;;;;;;;;;;;;;;;;;;4983458;28;93968;-74
2023/11/03 01:05:46;;;;;;;;;;;;;;;;;;4983581;28;93736;-76
2023/11/03 01:08:11;;;;;;;;;;;;;;;;;;4984153;28;94164;-79
2023/11/03 01:10:36;;;;;;;;;;;;;;;;;;4984270;28;92998;-75
2023/11/03 01:13:02;;;;;;;;;;;;;;;;;;4984770;28;92320;-79
2023/11/03 01:15:27;;;;;;;;;;;;;;;;;;4984258;28;93088;-77
2023/11/03 01:17:52;;;;;;;;;;;;;;;;;;4987243;28;93735;-77
2023/11/03 01:20:27;;;;;;;;;;;;;;;;;;4983061;28;92802;-67
2023/11/03 01:22:54;;;;;;;;;;;;;;;;;;4965796;28;94665;-68
2023/11/03 01:25:21;;;;;;;;;;;;;;;;;;4983420;28;92294;-68
2023/11/03 01:27:46;;;;;;;;;;;;;;;;;;4983796;28;92703;-69
2023/11/03 01:30:12;;;;;;;;;;;;;;;;;;4982978;28;94829;-70
2023/11/03 01:32:37;;;;;;;;;;;;;;;;;;4983948;28;92951;-71
2023/11/03 01:35:02;;;;;;;;;;;;;;;;;;4983999;28;92485;-77
2023/11/03 01:37:27;;;;;;;;;;;;;;;;;;4983602;28;93240;-75
2023/11/03 01:39:53;;;;;;;;;;;;;;;;;;4967990;28;92745;-70
2023/11/03 01:42:19;;;;;;;;;;;;;;;;;;4983232;28;93787;-75
2023/11/03 01:44:44;;;;;;;;;;;;;;;;;;4986814;28;92518;-68
2023/11/03 01:47:10;;;;;;;;;;;;;;;;;;4987168;28;93621;-72
2023/11/03 01:49:35;;;;;;;;;;;;;;;;;;4986571;28;92226;-67
2023/11/03 01:52:00;;;;;;;;;;;;;;;;;;4986968;28;92789;-68
2023/11/03 01:54:26;;;;;;;;;;;;;;;;;;4986367;28;93676;-66
2023/11/03 01:56:53;;;;;;;;;;;;;;;;;;4986370;28;92931;-72
2023/11/03 01:59:19;;;;;;;;;;;;;;;;;;4986369;28;92768;-66
2023/11/03 02:01:46;;;;;;;;;;;;;;;;;;4989708;28;92449;-70
2023/11/03 02:04:11;;;;;;;;;;;;;;;;;;4987002;28;92592;-69
2023/11/03 02:06:37;;;;;;;;;;;;;;;;;;4986751;28;93517;-74
2023/11/03 02:09:05;;;;;;;;;;;;;;;;;;4987419;28;92642;-73
2023/11/03 02:11:30;;;;;;;;;;;;;;;;;;4986794;28;91614;-70
2023/11/03 02:13:56;;;;;;;;;;;;;;;;;;4987478;28;92823;-74
2023/11/03 02:16:22;;;;;;;;;;;;;;;;;;4986861;28;92687;-75
2023/11/03 02:18:48;;;;;;;;;;;;;;;;;;4985527;28;93593;-71
2023/11/03 02:21:13;;;;;;;;;;;;;;;;;;4988460;28;93144;-74
2023/11/03 02:23:38;;;;;;;;;;;;;;;;;;4986149;28;92181;-71
2023/11/03 02:26:04;;;;;;;;;;;;;;;;;;4986444;28;94125;-68
2023/11/03 02:28:29;;;;;;;;;;;;;;;;;;4983118;28;92741;-71
2023/11/03 02:30:54;;;;;;;;;;;;;;;;;;4965848;28;94123;-70
2023/11/03 02:33:19;;;;;;;;;;;;;;;;;;4984638;28;92560;-67
2023/11/03 02:35:46;;;;;;;;;;;;;;;;;;4986194;28;91989;-75
2023/11/03 02:38:16;;;;;;;;;;;;;;;;;;4986131;28;92813;-77
2023/11/03 02:40:43;;;;;;;;;;;;;;;;;;4967407;28;93997;-71
2023/11/03 02:43:08;;;;;;;;;;;;;;;;;;4987723;28;93890;-78
2023/11/03 02:45:34;;;;;;;;;;;;;;;;;;4985527;28;93354;-78
2023/11/03 02:48:00;;;;;;;;;;;;;;;;;;4985978;28;92627;-77
2023/11/03 02:50:25;;;;;;;;;;;;;;;;;;4986329;28;93322;-77
2023/11/03 02:52:51;;;;;;;;;;;;;;;;;;4985513;28;94780;-78
2023/11/03 02:55:16;;;;;;;;;;;;;;;;;;4967362;28;95551;-75
2023/11/03 02:57:41;;;;;;;;;;;;;;;;;;4985639;28;92666;-78
2023/11/03 03:00:08;;;;;;;;;;;;;;;;;;4967274;28;95536;-70
2023/11/03 03:02:35;;;;;;;;;;;;;;;;;;4985248;28;92691;-67
2023/11/03 03:05:00;;;;;;;;;;;;;;;;;;4987351;28;92711;-67
2023/11/03 03:07:26;;;;;;;;;;;;;;;;;;4983117;28;93745;-68
2023/11/03 03:09:51;;;;;;;;;;;;;;;;;;4984021;28;92621;-71
2023/11/03 03:12:17;;;;;;;;;;;;;;;;;;4984368;28;92826;-71
2023/11/03 03:14:42;;;;;;;;;;;;;;;;;;4983428;28;92816;-67
2023/11/03 03:17:07;;;;;;;;;;;;;;;;;;4965521;28;92668;-67
2023/11/03 03:19:32;;;;;;;;;;;;;;;;;;4983854;28;92768;-68
2023/11/03 03:21:58;;;;;;;;;;;;;;;;;;4983401;28;92707;-70
2023/11/03 03:24:23;;;;;;;;;;;;;;;;;;4983741;28;91554;-66
2023/11/03 03:26:48;;;;;;;;;;;;;;;;;;4986489;28;92210;-68
2023/11/03 03:29:13;;;;;;;;;;;;;;;;;;4982760;28;92532;-68
2023/11/03 03:31:39;;;;;;;;;;;;;;;;;;4982944;28;93554;-68
2023/11/03 03:34:04;;;;;;;;;;;;;;;;;;4983266;28;92716;-69
2023/11/03 03:36:29;;;;;;;;;;;;;;;;;;4983826;28;92533;-71
2023/11/03 03:38:54;;;;;;;;;;;;;;;;;;4984241;28;93394;-69
2023/11/03 03:41:19;;;;;;;;;;;;;;;;;;4984455;28;93409;-70
2023/11/03 03:43:45;;;;;;;;;;;;;;;;;;4984170;28;92908;-70
2023/11/03 03:46:11;;;;;;;;;;;;;;;;;;4983499;28;93624;-72
2023/11/03 03:48:36;;;;;;;;;;;;;;;;;;4988074;28;92050;-71
2023/11/03 03:51:01;;;;;;;;;;;;;;;;;;4966348;28;94231;-75
2023/11/03 03:53:26;;;;;;;;;;;;;;;;;;4983673;28;92764;-77
2023/11/03 03:55:52;;;;;;;;;;;;;;;;;;4982923;28;93528;-76
2023/11/03 03:58:17;;;;;;;;;;;;;;;;;;4982706;28;93200;-71
2023/11/03 04:00:42;;;;;;;;;;;;;;;;;;4982928;28;92798;-74
2023/11/03 04:03:09;;;;;;;;;;;;;;;;;;4983318;28;92191;-70
2023/11/03 04:05:34;;;;;;;;;;;;;;;;;;4982571;28;92431;-68
2023/11/03 04:07:59;;;;;;;;;;;;;;;;;;4982603;28;92672;-70
2023/11/03 04:10:24;;;;;;;;;;;;;;;;;;4985889;28;92673;-69
2023/11/03 04:12:50;;;;;;;;;;;;;;;;;;4984048;28;91875;-74
2023/11/03 04:15:15;;;;;;;;;;;;;;;;;;4983760;28;94132;-79
2023/11/03 04:17:41;;;;;;;;;;;;;;;;;;4984894;28;92505;-69
2023/11/03 04:20:06;;;;;;;;;;;;;;;;;;4966960;28;94993;-72
2023/11/03 04:22:32;;;;;;;;;;;;;;;;;;4985480;28;92248;-76
2023/11/03 04:24:57;;;;;;;;;;;;;;;;;;4984367;28;92590;-75
2023/11/03 04:27:22;;;;;;;;;;;;;;;;;;4985972;28;92800;-75
2023/11/03 04:29:47;;;;;;;;;;;;;;;;;;4971099;28;92979;-76
2023/11/03 04:32:13;;;;;;;;;;;;;;;;;;4986484;28;92736;-78
2023/11/03 04:34:38;;;;;;;;;;;;;;;;;;4985965;28;92769;-79
2023/11/03 04:37:03;;;;;;;;;;;;;;;;;;4987070;28;92393;-77
2023/11/03 04:39:28;;;;;;;;;;;;;;;;;;4986679;28;92723;-78
2023/11/03 04:41:53;;;;;;;;;;;;;;;;;;4986767;28;93315;-78
2023/11/03 04:44:19;;;;;;;;;;;;;;;;;;4983894;28;93726;-68
2023/11/03 04:46:44;;;;;;;;;;;;;;;;;;4984229;28;92850;-72
2023/11/03 04:49:10;;;;;;;;;;;;;;;;;;4983553;28;92402;-72
2023/11/03 04:51:36;;;;;;;;;;;;;;;;;;4986379;28;93194;-68
2023/11/03 04:54:01;;;;;;;;;;;;;;;;;;4984062;28;93013;-73
2023/11/03 04:56:26;;;;;;;;;;;;;;;;;;4983668;28;92612;-75
2023/11/03 04:58:52;;;;;;;;;;;;;;;;;;4984106;28;92705;-71
2023/11/03 05:01:19;;;;;;;;;;;;;;;;;;4984448;28;92325;-71
2023/11/03 05:03:44;;;;;;;;;;;;;;;;;;4983670;28;92504;-72
2023/11/03 05:06:11;;;;;;;;;;;;;;;;;;4983383;28;92699;-70
2023/11/03 05:08:36;;;;;;;;;;;;;;;;;;4965640;28;93900;-67
2023/11/03 05:11:01;;;;;;;;;;;;;;;;;;4983065;28;93127;-67
2023/11/03 05:13:26;;;;;;;;;;;;;;;;;;4985743;28;93656;-67
2023/11/03 05:15:52;;;;;;;;;;;;;;;;;;4982758;28;92974;-71
2023/11/03 05:18:17;;;;;;;;;;;;;;;;;;4965512;28;95511;-73
2023/11/03 05:20:43;;;;;;;;;;;;;;;;;;4983247;28;94026;-76
2023/11/03 05:23:08;;;;;;;;;;;;;;;;;;4979670;28;93428;-73
2023/11/03 05:25:33;;;;;;;;;;;;;;;;;;4982413;28;93255;-70
2023/11/03 05:27:58;;;;;;;;;;;;;;;;;;4982509;28;92897;-67
2023/11/03 05:30:25;;;;;;;;;;;;;;;;;;4982368;28;92993;-71
2023/11/03 05:32:50;;;;;;;;;;;;;;;;;;4978961;28;94721;-69
2023/11/03 05:35:15;;;;;;;;;;;;;;;;;;4983585;28;93335;-67
2023/11/03 05:37:41;;;;;;;;;;;;;;;;;;4962247;28;95686;-67
2023/11/03 05:40:11;;;;;;;;;;;;;;;;;;4982140;28;92946;-75
2023/11/03 05:42:36;;;;;;;;;;;;;;;;;;4972879;28;93743;-67
2023/11/03 05:45:01;;;;;;;;;;;;;;;;;;4982072;28;92673;-67
2023/11/03 05:47:26;;;;;;;;;;;;;;;;;;4979906;28;92470;-69
2023/11/03 05:49:52;;;;;;;;;;;;;;;;;;4963989;28;92566;-67
2023/11/03 05:52:17;;;;;;;;;;;;;;;;;;4976190;28;92774;-70
2023/11/03 05:54:44;;;;;;;;;;;;;;;;;;4980823;28;92528;-68
2023/11/03 05:57:10;;;;;;;;;;;;;;;;;;4982686;28;93444;-69
2023/11/03 05:59:35;;;;;;;;;;;;;;;;;;4982200;28;93610;-72
2023/11/03 06:02:00;;;;;;;;;;;;;;;;;;4981042;28;93581;-73
2023/11/03 06:04:26;;;;;;;;;;;;;;;;;;4980267;28;93576;-74
2023/11/03 06:06:51;;;;;;;;;;;;;;;;;;4977633;28;93016;-74
2023/11/03 06:09:17;;;;;;;;;;;;;;;;;;4979256;28;93324;-68
2023/11/03 06:11:42;;;;;;;;;;;;;;;;;;4962615;28;93784;-70
2023/11/03 06:14:07;;;;;;;;;;;;;;;;;;4980616;28;92510;-69
2023/11/03 06:16:34;;;;;;;;;;;;;;;;;;4977832;28;94028;-68
2023/11/03 06:19:00;;;;;;;;;;;;;;;;;;4982138;28;93892;-69
2023/11/03 06:21:25;;;;;;;;;;;;;;;;;;4980884;28;93819;-79
2023/11/03 06:23:50;;;;;;;;;;;;;;;;;;4964054;28;96578;-74
2023/11/03 06:26:19;;;;;;;;;;;;;;;;;;4976697;28;92549;-71
2023/11/03 06:28:44;;;;;;;;;;;;;;;;;;4981580;28;93575;-73
2023/11/03 06:31:10;;;;;;;;;;;;;;;;;;4984034;28;92775;-69
2023/11/03 06:33:36;;;;;;;;;;;;;;;;;;4978622;28;93317;-68
2023/11/03 06:36:02;;;;;;;;;;;;;;;;;;4979746;28;92993;-67
2023/11/03 06:38:29;;;;;;;;;;;;;;;;;;4968798;28;95019;-66
2023/11/03 06:40:57;;;;;;;;;;;;;;;;;;4982186;28;93626;-67
2023/11/03 06:43:23;;;;;;;;;;;;;;;;;;4983337;28;92847;-68
2023/11/03 06:45:48;;;;;;;;;;;;;;;;;;4983247;28;93393;-70
2023/11/03 06:48:15;;;;;;;;;;;;;;;;;;4978438;28;94039;-67
2023/11/03 06:50:40;;;;;;;;;;;;;;;;;;4980321;28;93530;-74
2023/11/03 06:53:06;;;;;;;;;;;;;;;;;;4983697;28;93076;-77
2023/11/03 06:55:31;;;;;;;;;;;;;;;;;;4977153;28;93028;-67
2023/11/03 06:57:57;;;;;;;;;;;;;;;;;;4979192;28;92734;-74
2023/11/03 07:00:22;;;;;;;;;;;;;;;;;;4986371;28;93151;-73
2023/11/03 07:02:47;;;;;;;;;;;;;;;;;;4985258;28;92714;-68
2023/11/03 07:05:13;;;;;;;;;;;;;;;;;;4981344;28;92916;-74
2023/11/03 07:07:39;;;;;;;;;;;;;;;;;;4975530;28;93059;-74
2023/11/03 07:10:04;;;;;;;;;;;;;;;;;;4982579;28;93622;-74
2023/11/03 07:12:31;;;;;;;;;;;;;;;;;;4979866;28;93249;-69
2023/11/03 07:14:57;;;;;;;;;;;;;;;;;;4980929;28;92789;-72
2023/11/03 07:17:22;;;;;;;;;;;;;;;;;;4965122;28;94336;-67
2023/11/03 07:19:47;;;;;;;;;;;;;;;;;;4978567;28;92450;-67
2023/11/03 07:22:15;;;;;;;;;;;;;;;;;;4983695;28;92636;-67
2023/11/03 07:24:40;;;;;;;;;;;;;;;;;;4982123;28;93767;-75
2023/11/03 07:27:06;;;;;;;;;;;;;;;;;;4983142;28;92127;-68
2023/11/03 07:29:31;;;;;;;;;;;;;;;;;;4978851;28;92794;-65
2023/11/03 07:31:56;;;;;;;;;;;;;;;;;;4983683;28;92355;-65
2023/11/03 07:34:22;;;;;;;;;;;;;;;;;;4965883;28;95206;-66
2023/11/03 07:36:47;;;;;;;;;;;;;;;;;;4982115;28;92583;-65
2023/11/03 07:39:13;;;;;;;;;;;;;;;;;;4981859;28;93041;-65
2023/11/03 07:41:38;;;;;;;;;;;;;;;;;;4981742;28;92982;-67
2023/11/03 07:44:03;;;;;;;;;;;;;;;;;;4981644;28;93053;-66
2023/11/03 07:46:33;;;;;;;;;;;;;;;;;;4982393;28;94021;-67
2023/11/03 07:48:58;;;;;;;;;;;;;;;;;;4981979;28;92860;-64
2023/11/03 07:51:24;;;;;;;;;;;;;;;;;;4978854;28;91582;-67
2023/11/03 07:53:49;;;;;;;;;;;;;;;;;;4982793;28;93110;-66
2023/11/03 07:56:16;;;;;;;;;;;;;;;;;;4981624;28;93751;-67
2023/11/03 07:58:42;;;;;;;;;;;;;;;;;;4982280;28;93605;-67
2023/11/03 08:01:08;;;;;;;;;;;;;;;;;;4982439;28;93165;-69
2023/11/03 08:03:33;;;;;;;;;;;;;;;;;;4984453;28;93329;-65
2023/11/03 08:05:59;;;;;;;;;;;;;;;;;;4983702;28;92968;-66
2023/11/03 08:08:25;;;;;;;;;;;;;;;;;;4984856;28;93901;-67
2023/11/03 08:10:50;;;;;;;;;;;;;;;;;;4984556;28;92941;-67
2023/11/03 08:13:22;;;;;;;;;;;;;;;;;;4984031;28;93880;-64
2023/11/03 08:15:47;;;;;;;;;;;;;;;;;;4978962;28;93069;-65
2023/11/03 08:18:12;;;;;;;;;;;;;;;;;;4980969;28;92783;-69
2023/11/03 08:20:38;;;;;;;;;;;;;;;;;;4979733;28;92823;-66
2023/11/03 08:23:04;;;;;;;;;;;;;;;;;;4980430;28;94108;-68
2023/11/03 08:25:32;;;;;;;;;;;;;;;;;;4980329;28;93387;-70
2023/11/03 08:27:59;;;;;;;;;;;;;;;;;;4985430;28;92572;-73
2023/11/03 08:30:24;;;;;;;;;;;;;;;;;;4982221;28;93638;-70
2023/11/03 08:32:50;;;;;;;;;;;;;;;;;;4978838;28;93130;-63
2023/11/03 08:35:17;;;;;;;;;;;;;;;;;;4979837;28;93818;-67
2023/11/03 08:37:42;;;;;;;;;;;;;;;;;;4983710;28;92296;-69
2023/11/03 08:40:08;;;;;;;;;;;;;;;;;;4977627;28;93007;-68
2023/11/03 08:42:34;;;;;;;;;;;;;;;;;;4979656;28;92581;-68
2023/11/03 08:44:59;;;;;;;;;;;;;;;;;;4980248;28;92820;-66
2023/11/03 08:47:24;;;;;;;;;;;;;;;;;;4978850;28;93184;-69
2023/11/03 08:49:50;;;;;;;;;;;;;;;;;;4976184;28;93179;-69
2023/11/03 08:52:15;;;;;;;;;;;;;;;;;;4977811;28;92995;-70
2023/11/03 08:54:40;;;;;;;;;;;;;;;;;;4978754;28;93686;-67
2023/11/03 08:57:06;;;;;;;;;;;;;;;;;;4971735;28;93594;-64
2023/11/03 08:59:32;;;;;;;;;;;;;;;;;;4979382;28;92989;-64
2023/11/03 09:01:57;;;;;;;;;;;;;;;;;;4979704;28;92794;-74
2023/11/03 09:04:23;;;;;;;;;;;;;;;;;;4979935;28;91891;-74
2023/11/03 09:06:48;;;;;;;;;;;;;;;;;;4975806;28;92901;-67
2023/11/03 09:09:13;;;;;;;;;;;;;;;;;;4965282;28;95305;-72
2023/11/03 09:11:41;;;;;;;;;;;;;;;;;;4979012;28;95284;-67
2023/11/03 09:14:07;;;;;;;;;;;;;;;;;;4962949;28;96283;-66
2023/11/03 09:16:33;;;;;;;;;;;;;;;;;;4981364;28;92472;-66
2023/11/03 09:18:59;;;;;;;;;;;;;;;;;;4975496;28;92963;-68
2023/11/03 09:21:25;;;;;;;;;;;;;;;;;;4984625;28;93834;-71
2023/11/03 09:23:51;;;;;;;;;;;;;;;;;;4985288;28;93506;-67
2023/11/03 09:26:16;;;;;;;;;;;;;;;;;;4982116;28;93829;-67
2023/11/03 09:28:41;;;;;;;;;;;;;;;;;;4977081;28;91968;-66
2023/11/03 09:31:07;;;;;;;;;;;;;;;;;;4965628;28;93095;-74
2023/11/03 09:33:32;;;;;;;;;;;;;;;;;;4973214;28;92642;-67
2023/11/03 09:35:58;;;;;;;;;;;;;;;;;;4977142;28;94024;-67
2023/11/03 09:38:23;;;;;;;;;;;;;;;;;;4966488;28;96406;-69
2023/11/03 09:40:50;;;;;;;;;;;;;;;;;;4982921;28;92878;-65
2023/11/03 09:43:16;;;;;;;;;;;;;;;;;;4967601;28;92927;-69
2023/11/03 09:45:42;;;;;;;;;;;;;;;;;;4974848;28;93143;-68
2023/11/03 09:48:12;;;;;;;;;;;;;;;;;;4978845;28;93323;-65
2023/11/03 09:50:37;;;;;;;;;;;;;;;;;;4978236;28;94126;-65
2023/11/03 09:53:11;;;;;;;;;;;;;;;;;;4983861;28;92529;-65
2023/11/03 09:55:36;;;;;;;;;;;;;;;;;;4979212;28;92987;-66
2023/11/03 09:58:02;;;;;;;;;;;;;;;;;;4968807;28;95297;-67
2023/11/03 10:00:28;;;;;;;;;;;;;;;;;;4980713;28;94748;-64
2023/11/03 10:02:54;;;;;;;;;;;;;;;;;;4982603;28;92757;-65
2023/11/03 10:05:21;;;;;;;;;;;;;;;;;;4981470;28;92473;-67
2023/11/03 10:07:51;;;;;;;;;;;;;;;;;;4982332;28;93804;-65
2023/11/03 10:10:16;;;;;;;;;;;;;;;;;;4984068;28;94146;-69
2023/11/03 10:12:43;;;;;;;;;;;;;;;;;;4987845;28;93805;-69
2023/11/03 10:15:12;;;;;;;;;;;;;;;;;;4981950;28;92858;-70
2023/11/03 10:17:38;;;;;;;;;;;;;;;;;;4983204;28;93771;-69
2023/11/03 10:20:04;;;;;;;;;;;;;;;;;;4979864;28;93326;-71
2023/11/03 10:22:30;;;;;;;;;;;;;;;;;;4981758;28;92675;-73
2023/11/03 10:24:56;;;;;;;;;;;;;;;;;;4982013;28;94002;-75
2023/11/03 10:27:21;;;;;;;;;;;;;;;;;;4984152;28;93323;-75
2023/11/03 10:29:51;;;;;;;;;;;;;;;;;;4983940;28;92630;-76
2023/11/03 10:32:18;;;;;;;;;;;;;;;;;;4982107;28;93077;-70
2023/11/03 10:34:43;;;;;;;;;;;;;;;;;;4984024;28;92901;-72
2023/11/03 10:37:09;;;;;;;;;;;;;;;;;;4984692;28;92831;-71
2023/11/03 10:39:35;;;;;;;;;;;;;;;;;;4982374;28;92420;-73
2023/11/03 10:42:02;;;;;;;;;;;;;;;;;;4981715;28;91630;-69
2023/11/03 10:44:30;;;;;;;;;;;;;;;;;;4982513;28;93844;-68
2023/11/03 10:46:58;;;;;;;;;;;;;;;;;;4981797;28;93809;-72
2023/11/03 10:49:31;;;;;;;;;;;;;;;;;;4981278;28;93775;-70
2023/11/03 10:52:07;;;;;;;;;;;;;;;;;;4981914;28;93678;-73
2023/11/03 10:54:40;;;;;;;;;;;;;;;;;;4983245;28;92771;-77
2023/11/03 10:57:06;;;;;;;;;;;;;;;;;;4968307;28;93476;-65
2023/11/03 10:59:32;;;;;;;;;;;;;;;;;;4979572;28;92701;-66
2023/11/03 11:02:10;;;;;;;;;;;;;;;;;;4963539;28;92661;-66
2023/11/03 11:04:52;;;;;;;;;;;;;;;;;;4978882;28;94904;-74
2023/11/03 11:07:19;;;;;;;;;;;;;;;;;;4982115;28;92052;-67
2023/11/03 11:09:48;;;;;;;;;;;;;;;;;;4980613;28;94253;-72
2023/11/03 11:12:14;;;;;;;;;;;;;;;;;;4979822;28;92717;-69
2023/11/03 11:14:40;;;;;;;;;;;;;;;;;;4954228;28;95245;-74
2023/11/03 11:17:09;;;;;;;;;;;;;;;;;;4981570;28;92873;-72
2023/11/03 11:19:38;;;;;;;;;;;;;;;;;;4983172;28;94399;-69
2023/11/03 11:22:07;;;;;;;;;;;;;;;;;;4980749;28;93201;-70
2023/11/03 11:24:33;;;;;;;;;;;;;;;;;;4982681;28;92613;-68
2023/11/03 11:27:11;;;;;;;;;;;;;;;;;;4982709;28;92616;-73
2023/11/03 11:29:36;;;;;;;;;;;;;;;;;;4977515;28;92718;-72
2023/11/03 11:32:04;;;;;;;;;;;;;;;;;;4982792;28;96716;-73
2023/11/03 11:34:30;;;;;;;;;;;;;;;;;;4979034;28;93828;-74
2023/11/03 11:37:15;;;;;;;;;;;;;;;;;;4982489;28;92278;-66
2023/11/03 11:39:40;;;;;;;;;;;;;;;;;;4981219;28;94002;-71
2023/11/03 11:42:06;;;;;;;;;;;;;;;;;;4985275;28;93265;-72
2023/11/03 11:44:33;;;;;;;;;;;;;;;;;;4980213;28;93516;-68
2023/11/03 11:47:00;;;;;;;;;;;;;;;;;;4981096;28;93795;-68
2023/11/03 11:49:27;;;;;;;;;;;;;;;;;;4981691;28;93715;-69
2023/11/03 11:51:56;;;;;;;;;;;;;;;;;;4980389;28;93959;-69
2023/11/03 11:54:22;;;;;;;;;;;;;;;;;;4981766;28;93240;-69
2023/11/03 11:56:48;;;;;;;;;;;;;;;;;;4983921;28;91977;-68
2023/11/03 11:59:20;;;;;;;;;;;;;;;;;;4981228;28;92660;-68
2023/11/03 12:01:46;;;;;;;;;;;;;;;;;;4976351;28;93137;-67
2023/11/03 12:04:12;;;;;;;;;;;;;;;;;;4980589;28;94334;-69
2023/11/03 12:06:39;;;;;;;;;;;;;;;;;;4981338;28;93117;-68
2023/11/03 12:09:04;;;;;;;;;;;;;;;;;;4981896;28;92924;-69
2023/11/03 12:11:30;;;;;;;;;;;;;;;;;;4981146;28;93421;-66
2023/11/03 12:13:56;;;;;;;;;;;;;;;;;;4985956;28;93073;-66
2023/11/03 12:16:22;;;;;;;;;;;;;;;;;;4978644;28;92546;-67
2023/11/03 12:18:50;;;;;;;;;;;;;;;;;;4965217;28;95811;-67
2023/11/03 12:21:15;;;;;;;;;;;;;;;;;;4982756;28;92998;-67
2023/11/03 12:23:41;;;;;;;;;;;;;;;;;;4981763;28;92472;-67
2023/11/03 12:26:08;;;;;;;;;;;;;;;;;;4983920;28;93046;-69
2023/11/03 12:28:34;;;;;;;;;;;;;;;;;;4967440;28;93820;-68
2023/11/03 12:31:04;;;;;;;;;;;;;;;;;;4984542;28;94696;-72
2023/11/03 12:33:29;;;;;;;;;;;;;;;;;;4981118;28;93500;-72
2023/11/03 12:35:55;;;;;;;;;;;;;;;;;;4977912;28;92808;-67
2023/11/03 12:38:20;;;;;;;;;;;;;;;;;;4976101;28;93425;-70
2023/11/03 12:40:47;;;;;;;;;;;;;;;;;;4980983;28;95415;-67
2023/11/03 12:43:13;;;;;;;;;;;;;;;;;;4981443;28;93031;-67
2023/11/03 12:45:38;;;;;;;;;;;;;;;;;;4982233;28;92377;-67
2023/11/03 12:48:16;;;;;;;;;;;;;;;;;;4979176;28;92441;-67
2023/11/03 12:50:49;;;;;;;;;;;;;;;;;;4978783;28;92509;-69
2023/11/03 12:53:15;;;;;;;;;;;;;;;;;;4978167;28;94278;-69
2023/11/03 12:55:40;;;;;;;;;;;;;;;;;;4978183;28;93738;-70
2023/11/03 13:06:21;;;;;;;;;;;;;;;;;;5045329;27;83613;-76
2023/11/03 13:08:46;;;;;;;;;;;;;;;;;;5025843;28;90098;-74
2023/11/03 13:11:11;;;;;;;;;;;;;;;;;;5026397;28;89750;-71
2023/11/03 13:13:37;;;;;;;;;;;;;;;;;;5026995;27;89184;-76
2023/11/03 13:16:04;;;;;;;;;;;;;;;;;;5024331;27;90846;-74
2023/11/03 13:18:30;;;;;;;;;;;;;;;;;;5055208;27;91288;-74
2023/11/03 13:20:55;;;;;;;;;;;;;;;;;;5022427;27;90252;-71
2023/11/03 13:23:21;;;;;;;;;;;;;;;;;;5021235;27;91461;-75
2023/11/03 13:25:46;;;;;;;;;;;;;;;;;;5019067;28;90241;-73
2023/11/03 13:28:13;;;;;;;;;;;;;;;;;;5026262;27;93190;-68
2023/11/03 13:30:38;;;;;;;;;;;;;;;;;;5021071;28;90570;-68
2023/11/03 13:33:03;;;;;;;;;;;;;;;;;;5021386;27;89032;-66
2023/11/03 13:35:29;;;;;;;;;;;;;;;;;;5015943;28;89533;-69
2023/11/03 13:37:54;;;;;;;;;;;;;;;;;;5018822;27;91199;-67
2023/11/03 13:40:20;;;;;;;;;;;;;;;;;;5018549;28;89655;-69
2023/11/03 13:42:46;;;;;;;;;;;;;;;;;;5020931;27;90200;-69
2023/11/03 13:45:12;;;;;;;;;;;;;;;;;;5018619;28;91305;-65
2023/11/03 13:47:37;;;;;;;;;;;;;;;;;;5023502;27;89598;-66
2023/11/03 13:50:02;;;;;;;;;;;;;;;;;;5020934;27;89049;-64
2023/11/03 13:52:30;;;;;;;;;;;;;;;;;;5018711;27;89162;-64
2023/11/03 13:54:56;;;;;;;;;;;;;;;;;;5020452;27;91492;-67
2023/11/03 13:57:22;;;;;;;;;;;;;;;;;;5023835;27;89556;-67
2023/11/03 13:59:47;;;;;;;;;;;;;;;;;;5018879;28;89549;-68
2023/11/03 14:02:12;;;;;;;;;;;;;;;;;;5022322;27;90117;-67
2023/11/03 14:04:40;;;;;;;;;;;;;;;;;;5016331;28;89255;-74
2023/11/03 14:07:05;;;;;;;;;;;;;;;;;;5024684;27;90463;-65
2023/11/03 14:09:31;;;;;;;;;;;;;;;;;;5023706;27;90751;-64
2023/11/03 14:11:57;;;;;;;;;;;;;;;;;;5019015;27;89544;-68
2023/11/03 14:14:28;;;;;;;;;;;;;;;;;;5018497;28;89601;-66
2023/11/03 14:16:53;;;;;;;;;;;;;;;;;;5044451;27;93329;-69
2023/11/03 14:19:18;;;;;;;;;;;;;;;;;;5002990;28;89695;-66
2023/11/03 14:21:44;;;;;;;;;;;;;;;;;;5006678;28;89969;-67
2023/11/03 14:24:11;;;;;;;;;;;;;;;;;;5006448;28;89950;-64
2023/11/03 14:26:41;;;;;;;;;;;;;;;;;;5005611;28;89058;-65
2023/11/03 14:29:06;;;;;;;;;;;;;;;;;;5005219;28;90887;-67
2023/11/03 14:31:32;;;;;;;;;;;;;;;;;;5011657;28;90458;-65
2023/11/03 14:33:59;;;;;;;;;;;;;;;;;;5005444;28;89417;-68
2023/11/03 14:36:25;;;;;;;;;;;;;;;;;;5008937;28;90099;-72
2023/11/03 14:38:50;;;;;;;;;;;;;;;;;;5008180;28;90794;-69
2023/11/03 14:41:16;;;;;;;;;;;;;;;;;;5006774;28;90652;-67
2023/11/03 14:43:42;;;;;;;;;;;;;;;;;;5000759;28;89570;-65
2023/11/03 14:46:07;;;;;;;;;;;;;;;;;;5004225;28;89587;-72
2023/11/03 14:48:32;;;;;;;;;;;;;;;;;;5006410;28;90635;-71
2023/11/03 14:50:58;;;;;;;;;;;;;;;;;;5002258;28;92198;-74
2023/11/03 14:53:23;;;;;;;;;;;;;;;;;;5004971;28;89944;-72
2023/11/03 14:55:48;;;;;;;;;;;;;;;;;;5005451;27;90228;-68
2023/11/03 14:58:15;;;;;;;;;;;;;;;;;;5003302;28;90259;-67
2023/11/03 15:00:44;;;;;;;;;;;;;;;;;;5003133;28;90678;-70
2023/11/03 15:03:09;;;;;;;;;;;;;;;;;;5003211;28;90510;-69
2023/11/03 15:05:36;;;;;;;;;;;;;;;;;;5004066;28;89538;-65
2023/11/03 15:08:03;;;;;;;;;;;;;;;;;;5005032;28;90993;-69
2023/11/03 15:10:30;;;;;;;;;;;;;;;;;;5007360;28;89511;-70
2023/11/03 15:12:56;;;;;;;;;;;;;;;;;;5004533;28;90186;-69
2023/11/03 15:15:22;;;;;;;;;;;;;;;;;;5006939;28;89774;-65
2023/11/03 15:17:47;;;;;;;;;;;;;;;;;;5006479;28;89454;-67
2023/11/03 15:20:17;;;;;;;;;;;;;;;;;;5006950;28;90596;-65
2023/11/03 15:22:45;;;;;;;;;;;;;;;;;;5004833;28;90492;-70
2023/11/03 15:25:17;;;;;;;;;;;;;;;;;;5006791;28;90141;-67
2023/11/03 15:27:43;;;;;;;;;;;;;;;;;;5006767;28;89070;-66
2023/11/03 15:30:09;;;;;;;;;;;;;;;;;;5003675;28;89919;-65
2023/11/03 15:32:34;;;;;;;;;;;;;;;;;;5004056;28;90222;-65
2023/11/03 15:35:00;;;;;;;;;;;;;;;;;;5004987;28;90412;-64
2023/11/03 15:37:26;;;;;;;;;;;;;;;;;;5006397;28;89902;-71
2023/11/03 15:39:51;;;;;;;;;;;;;;;;;;5006120;28;90457;-66
2023/11/03 15:42:18;;;;;;;;;;;;;;;;;;5000126;28;89713;-70
2023/11/03 15:44:43;;;;;;;;;;;;;;;;;;5007401;28;89354;-65
2023/11/03 15:47:11;;;;;;;;;;;;;;;;;;5005807;28;91216;-68
2023/11/03 15:49:36;;;;;;;;;;;;;;;;;;5004167;28;90178;-65
2023/11/03 15:52:03;;;;;;;;;;;;;;;;;;5007282;28;89794;-69
2023/11/03 15:54:28;;;;;;;;;;;;;;;;;;4997547;28;89707;-74
2023/11/03 15:56:55;;;;;;;;;;;;;;;;;;5012515;28;89720;-65
2023/11/03 15:59:20;;;;;;;;;;;;;;;;;;5008376;28;90645;-68
2023/11/03 16:01:46;;;;;;;;;;;;;;;;;;5005800;28;89736;-65
2023/11/03 16:04:12;;;;;;;;;;;;;;;;;;5003565;28;89815;-64
2023/11/03 16:06:37;;;;;;;;;;;;;;;;;;5002895;28;89777;-65
2023/11/03 16:09:02;;;;;;;;;;;;;;;;;;5003713;28;89359;-67
2023/11/03 16:11:28;;;;;;;;;;;;;;;;;;5003377;28;89502;-65
2023/11/03 16:13:53;;;;;;;;;;;;;;;;;;5003916;28;90111;-65
2023/11/03 16:16:19;;;;;;;;;;;;;;;;;;5004991;28;91205;-68
2023/11/03 16:18:45;;;;;;;;;;;;;;;;;;5007787;28;90185;-67
2023/11/03 16:21:10;;;;;;;;;;;;;;;;;;5003757;28;90478;-66
2023/11/03 16:23:35;;;;;;;;;;;;;;;;;;5005709;28;90565;-64
2023/11/03 16:26:01;;;;;;;;;;;;;;;;;;5006840;28;91288;-74
2023/11/03 16:28:29;;;;;;;;;;;;;;;;;;5004850;28;90747;-67
2023/11/03 16:30:54;;;;;;;;;;;;;;;;;;5005439;28;89693;-73
2023/11/03 16:33:19;;;;;;;;;;;;;;;;;;5004192;28;89655;-66
2023/11/03 16:35:45;;;;;;;;;;;;;;;;;;5001489;28;90012;-67
2023/11/03 16:38:10;;;;;;;;;;;;;;;;;;5005865;28;90388;-71
2023/11/03 16:40:39;;;;;;;;;;;;;;;;;;5009780;28;90147;-69
2023/11/03 16:43:07;;;;;;;;;;;;;;;;;;5004118;28;90272;-66
2023/11/03 16:45:32;;;;;;;;;;;;;;;;;;5003139;28;89589;-67